Time;durP1;ratioP1;P1;durP2;ratioP2;P2;SDS_P1;SDS_P2;PMS_P1;PMS_P2;Temp;Humidity;BMP_temperature;BMP_pressure;BME280_temperature;BME280_humidity;BME280_pressure;Samples;Min_cycle;Max_cycle;Signal;HPM_P1;HPM_P2
2023/08/14 00:01:02;;;;;;;39.67;32.53;;;15.10;99.90;;;;;;5115754;28;20111;-63
2023/08/14 00:03:28;;;;;;;31.30;26.73;;;15.00;99.90;;;;;;5115615;28;20066;-63
2023/08/14 00:05:54;;;;;;;33.80;26.90;;;15.00;99.90;;;;;;5115497;28;20040;-63
2023/08/14 00:08:20;;;;;;;38.55;34.45;;;15.00;99.90;;;;;;5115479;28;20023;-63
2023/08/14 00:10:46;;;;;;;40.15;35.58;;;14.90;99.90;;;;;;5115521;28;20059;-63
2023/08/14 00:13:12;;;;;;;39.65;35.35;;;14.80;99.90;;;;;;5115320;28;20020;-63
2023/08/14 00:15:39;;;;;;;34.17;27.88;;;14.80;99.90;;;;;;5115384;28;20024;-63
2023/08/14 00:18:05;;;;;;;27.40;24.33;;;14.70;99.90;;;;;;5115537;28;20102;-63
2023/08/14 00:20:31;;;;;;;20.27;18.17;;;14.70;99.90;;;;;;5115180;28;20027;-63
2023/08/14 00:22:57;;;;;;;16.38;14.65;;;14.70;99.90;;;;;;5115263;28;20039;-63
2023/08/14 00:25:23;;;;;;;17.98;15.50;;;14.60;99.90;;;;;;5115225;28;20450;-63
2023/08/14 00:27:49;;;;;;;17.63;15.52;;;14.60;99.90;;;;;;5115256;28;20058;-63
2023/08/14 00:30:15;;;;;;;17.75;15.85;;;14.60;99.90;;;;;;5115147;28;20031;-63
2023/08/14 00:32:41;;;;;;;17.33;13.50;;;14.60;99.90;;;;;;5113947;28;20403;-63
2023/08/14 00:35:08;;;;;;;16.75;13.23;;;14.60;99.90;;;;;;5115090;28;20051;-63
2023/08/14 00:37:45;;;;;;;15.43;11.77;;;14.60;99.90;;;;;;5115150;28;20165;-63
2023/08/14 00:40:12;;;;;;;12.73;11.30;;;14.60;99.90;;;;;;5113877;28;20024;-63
2023/08/14 00:42:39;;;;;;;13.02;10.15;;;14.60;99.90;;;;;;5115136;28;20353;-63
2023/08/14 00:45:06;;;;;;;11.90;10.23;;;14.50;99.90;;;;;;5115179;28;20096;-63
2023/08/14 00:47:35;;;;;;;13.27;10.23;;;14.50;99.90;;;;;;5113851;28;20505;-63
2023/08/14 00:50:03;;;;;;;12.02;10.10;;;14.50;99.90;;;;;;5113577;28;20042;-63
2023/08/14 00:52:31;;;;;;;12.88;9.38;;;14.50;99.90;;;;;;5114931;28;20461;-63
2023/08/14 00:55:02;;;;;;;10.70;9.57;;;14.50;99.90;;;;;;5114969;28;20055;-63
2023/08/14 00:57:30;;;;;;;10.80;9.40;;;14.50;99.90;;;;;;5113473;28;20031;-63
2023/08/14 00:59:56;;;;;;;12.27;9.57;;;14.50;99.90;;;;;;5113615;28;20044;-63
2023/08/14 01:02:24;;;;;;;13.68;10.25;;;14.50;99.90;;;;;;5115208;28;20368;-63
2023/08/14 01:04:50;;;;;;;11.18;9.98;;;14.40;99.90;;;;;;5113717;28;20040;-63
2023/08/14 01:07:16;;;;;;;14.77;10.80;;;14.40;99.90;;;;;;5113677;28;20048;-63
2023/08/14 01:09:43;;;;;;;10.85;9.70;;;14.40;99.90;;;;;;5113375;28;20084;-63
2023/08/14 01:12:19;;;;;;;14.48;10.40;;;14.30;99.90;;;;;;5113565;28;20074;-63
2023/08/14 01:14:47;;;;;;;12.88;10.27;;;14.30;99.90;;;;;;5114794;28;20036;-63
2023/08/14 01:17:15;;;;;;;11.65;9.60;;;14.30;99.90;;;;;;5114848;28;20027;-63
2023/08/14 01:19:42;;;;;;;11.43;10.20;;;14.30;99.90;;;;;;5114927;28;20455;-63
2023/08/14 01:22:16;;;;;;;11.35;10.05;;;14.30;99.90;;;;;;5114808;28;20480;-63
2023/08/14 01:25:18;;;;;;;14.07;10.57;;;14.30;99.90;;;;;;5114750;28;20043;-63
2023/08/14 01:27:44;;;;;;;12.85;10.40;;;14.20;99.90;;;;;;5113490;28;20034;-63
2023/08/14 01:30:10;;;;;;;12.00;10.77;;;14.30;99.90;;;;;;5113366;28;20028;-63
2023/08/14 01:32:36;;;;;;;13.88;10.77;;;14.20;99.90;;;;;;5113243;28;20027;-63
2023/08/14 01:35:03;;;;;;;13.27;9.75;;;14.20;99.90;;;;;;5113531;28;20031;-63
2023/08/14 01:38:05;;;;;;;11.00;9.85;;;14.20;99.90;;;;;;5117162;28;20081;-63
2023/08/14 01:40:56;;;;;;;12.43;10.20;;;14.20;99.90;;;;;;5118418;28;20511;-63
2023/08/14 01:43:30;;;;;;;12.80;9.85;;;14.10;99.90;;;;;;5118390;28;20031;-63
2023/08/14 01:45:57;;;;;;;12.55;9.93;;;14.20;99.90;;;;;;5118271;28;20039;-63
2023/08/14 01:48:24;;;;;;;12.40;10.18;;;14.10;99.90;;;;;;5118277;28;20472;-63
2023/08/14 01:50:53;;;;;;;11.70;10.48;;;14.10;99.90;;;;;;5118357;28;20047;-63
2023/08/14 01:53:19;;;;;;;12.02;10.15;;;14.20;99.90;;;;;;5118233;28;20018;-63
2023/08/14 01:55:45;;;;;;;14.18;9.27;;;14.20;99.90;;;;;;5116913;28;20480;-63
2023/08/14 01:58:11;;;;;;;12.57;10.52;;;14.20;99.90;;;;;;5116726;28;20055;-63
2023/08/14 02:00:37;;;;;;;11.35;10.13;;;14.20;99.90;;;;;;5116446;28;20397;-63
2023/08/14 02:03:04;;;;;;;15.60;10.60;;;14.10;99.90;;;;;;5118113;28;20023;-63
2023/08/14 02:05:30;;;;;;;10.85;9.48;;;14.10;99.90;;;;;;5118021;28;20098;-63
2023/08/14 02:07:56;;;;;;;12.18;9.52;;;14.10;99.90;;;;;;5117929;27;20016;-63
2023/08/14 02:10:23;;;;;;;10.93;9.63;;;14.10;99.90;;;;;;5117751;28;20039;-63
2023/08/14 02:12:49;;;;;;;11.68;10.20;;;14.10;99.90;;;;;;5117828;28;20519;-63
2023/08/14 02:15:16;;;;;;;13.20;9.75;;;14.10;99.90;;;;;;5117613;28;20024;-63
2023/08/14 02:17:42;;;;;;;14.30;10.25;;;14.10;99.90;;;;;;5117788;28;20028;-63
2023/08/14 02:20:09;;;;;;;14.93;10.68;;;14.00;99.90;;;;;;5117789;28;20026;-63
2023/08/14 02:22:35;;;;;;;13.80;9.82;;;14.00;99.90;;;;;;5117528;28;20055;-63
2023/08/14 02:25:01;;;;;;;13.48;10.27;;;14.00;99.90;;;;;;5117638;28;20020;-63
2023/08/14 02:27:28;;;;;;;17.27;10.43;;;14.00;99.90;;;;;;5117512;28;20093;-63
2023/08/14 02:29:54;;;;;;;17.70;11.93;;;14.00;99.90;;;;;;5117397;28;20515;-63
2023/08/14 02:32:20;;;;;;;20.60;13.38;;;14.00;99.90;;;;;;5117575;28;20086;-63
2023/08/14 02:34:48;;;;;;;20.20;13.02;;;14.00;99.90;;;;;;5117847;28;20047;-63
2023/08/14 02:37:16;;;;;;;17.00;11.95;;;14.00;99.90;;;;;;5117415;28;20023;-63
2023/08/14 02:39:42;;;;;;;19.13;12.10;;;13.90;99.90;;;;;;5117448;28;20035;-63
2023/08/14 02:42:09;;;;;;;19.38;12.40;;;14.10;99.90;;;;;;5115892;28;20063;-63
2023/08/14 02:44:35;;;;;;;16.45;11.23;;;14.10;99.90;;;;;;5117152;28;20079;-63
2023/08/14 02:47:02;;;;;;;16.42;10.63;;;14.00;99.90;;;;;;5117080;28;20544;-63
2023/08/14 02:49:29;;;;;;;22.85;11.90;;;14.00;99.90;;;;;;5115725;28;20035;-63
2023/08/14 02:51:55;;;;;;;18.80;11.57;;;14.00;99.90;;;;;;5117424;28;20384;-63
2023/08/14 02:54:21;;;;;;;16.98;12.13;;;14.00;99.90;;;;;;5117175;28;20033;-63
2023/08/14 02:56:48;;;;;;;19.05;11.40;;;14.00;99.90;;;;;;5116939;27;20032;-63
2023/08/14 02:59:14;;;;;;;17.83;12.45;;;14.00;99.90;;;;;;5116827;28;20039;-63
2023/08/14 03:01:41;;;;;;;19.52;12.65;;;13.90;99.90;;;;;;5115674;28;20097;-63
2023/08/14 03:04:07;;;;;;;24.23;12.00;;;13.90;99.90;;;;;;5116936;28;20031;-63
2023/08/14 03:06:33;;;;;;;15.45;11.15;;;13.90;99.90;;;;;;5116840;28;20024;-63
2023/08/14 03:09:00;;;;;;;16.45;10.45;;;13.80;99.90;;;;;;5115375;28;20036;-63
2023/08/14 03:11:27;;;;;;;14.88;11.02;;;13.80;99.90;;;;;;5116477;28;20079;-63
2023/08/14 03:13:53;;;;;;;12.43;10.80;;;13.80;99.90;;;;;;5116790;28;20084;-63
2023/08/14 03:16:19;;;;;;;12.80;10.40;;;13.80;99.90;;;;;;5115407;28;20020;-63
2023/08/14 03:18:45;;;;;;;11.93;9.70;;;13.80;99.90;;;;;;5115319;28;20053;-63
2023/08/14 03:21:11;;;;;;;11.20;10.07;;;13.80;99.90;;;;;;5116594;28;20038;-63
2023/08/14 03:23:37;;;;;;;17.08;10.15;;;13.80;99.90;;;;;;5116604;28;20039;-63
2023/08/14 03:26:04;;;;;;;11.68;10.07;;;13.80;99.90;;;;;;5116379;27;20395;-63
2023/08/14 03:28:30;;;;;;;12.18;10.25;;;13.80;99.90;;;;;;5116304;28;20050;-63
2023/08/14 03:30:56;;;;;;;14.18;9.57;;;13.80;99.90;;;;;;5116351;28;20094;-63
2023/08/14 03:33:24;;;;;;;12.50;10.30;;;13.80;99.90;;;;;;5115012;28;20023;-63
2023/08/14 03:35:55;;;;;;;16.77;11.30;;;13.80;99.90;;;;;;5115034;28;20031;-63
2023/08/14 03:38:21;;;;;;;15.82;10.48;;;13.80;99.90;;;;;;5115043;28;20119;-63
2023/08/14 03:40:47;;;;;;;15.38;10.05;;;13.80;99.90;;;;;;5116010;28;20024;-63
2023/08/14 03:43:14;;;;;;;17.55;10.27;;;13.80;99.90;;;;;;5114908;28;20119;-63
2023/08/14 03:45:39;;;;;;;13.95;10.07;;;13.70;99.90;;;;;;5114722;28;20496;-63
2023/08/14 03:48:06;;;;;;;16.42;10.23;;;13.70;99.90;;;;;;5114646;28;20043;-63
2023/08/14 03:50:31;;;;;;;14.45;10.02;;;13.80;99.90;;;;;;5114541;28;20033;-63
2023/08/14 03:52:57;;;;;;;17.95;10.27;;;13.80;99.90;;;;;;5114641;28;20035;-63
2023/08/14 03:55:23;;;;;;;17.30;10.32;;;13.80;99.90;;;;;;5115814;28;20470;-63
2023/08/14 03:57:49;;;;;;;14.23;9.82;;;13.80;99.90;;;;;;5115463;28;20019;-63
2023/08/14 04:00:15;;;;;;;14.38;9.77;;;13.80;99.90;;;;;;5115507;28;20047;-63
2023/08/14 04:02:42;;;;;;;10.05;8.73;;;13.70;99.90;;;;;;5114355;28;20027;-63
2023/08/14 04:05:08;;;;;;;24.23;9.68;;;13.70;99.90;;;;;;5115688;28;20031;-63
2023/08/14 04:07:34;;;;;;;15.00;9.95;;;13.60;99.90;;;;;;5114272;28;20073;-63
2023/08/14 04:10:00;;;;;;;16.73;10.30;;;13.50;99.90;;;;;;5097170;28;20081;-63
2023/08/14 04:12:26;;;;;;;12.93;9.90;;;13.50;99.90;;;;;;5115530;28;20024;-63
2023/08/14 04:14:52;;;;;;;12.68;9.27;;;13.50;99.90;;;;;;5115527;28;20049;-63
2023/08/14 04:17:18;;;;;;;12.52;9.63;;;13.50;99.90;;;;;;5115529;28;20107;-63
2023/08/14 04:19:44;;;;;;;14.90;9.77;;;13.50;99.90;;;;;;5114147;28;20281;-65
2023/08/14 04:22:10;;;;;;;12.93;9.88;;;13.50;99.90;;;;;;5115242;28;20059;-65
2023/08/14 04:24:36;;;;;;;13.95;10.07;;;13.60;99.90;;;;;;5114109;28;20488;-65
2023/08/14 04:27:02;;;;;;;13.32;10.20;;;13.60;99.90;;;;;;5113920;28;20452;-65
2023/08/14 04:29:29;;;;;;;12.70;10.50;;;13.60;99.90;;;;;;5115130;28;20028;-65
2023/08/14 04:31:54;;;;;;;13.93;11.07;;;13.70;99.90;;;;;;5115173;28;20057;-65
2023/08/14 04:34:21;;;;;;;14.20;10.43;;;13.70;99.90;;;;;;5113916;28;20024;-65
2023/08/14 04:36:50;;;;;;;14.48;10.48;;;13.70;99.90;;;;;;5113891;28;20457;-65
2023/08/14 04:39:17;;;;;;;15.02;10.27;;;13.80;99.90;;;;;;5113833;28;20035;-65
2023/08/14 04:41:43;;;;;;;17.73;11.40;;;13.80;99.90;;;;;;5113859;28;20035;-65
2023/08/14 04:44:10;;;;;;;13.40;12.02;;;13.90;99.90;;;;;;5113658;28;20110;-65
2023/08/14 04:46:38;;;;;;;14.82;11.55;;;14.00;99.90;;;;;;5113718;28;20032;-65
2023/08/14 04:49:05;;;;;;;13.57;11.95;;;14.10;99.90;;;;;;5113699;28;20035;-65
2023/08/14 04:51:31;;;;;;;14.57;11.52;;;14.20;99.90;;;;;;5113475;28;20052;-65
2023/08/14 04:53:59;;;;;;;13.75;11.75;;;14.30;99.90;;;;;;5113691;28;20555;-65
2023/08/14 04:56:26;;;;;;;15.50;12.73;;;14.30;99.90;;;;;;5113697;28;20027;-65
2023/08/14 04:58:52;;;;;;;27.33;13.90;;;14.40;99.90;;;;;;5112967;28;20040;-65
2023/08/14 05:01:20;;;;;;;26.95;13.95;;;14.60;99.90;;;;;;5113692;28;20023;-65
2023/08/14 05:03:50;;;;;;;22.93;12.40;;;14.80;99.90;;;;;;5113350;28;20027;-66
2023/08/14 05:06:16;;;;;;;20.00;12.95;;;14.80;99.90;;;;;;5114791;28;20028;-65
2023/08/14 05:08:42;;;;;;;35.05;13.23;;;15.00;99.90;;;;;;5113478;28;20028;-66
2023/08/14 05:11:10;;;;;;;31.08;15.43;;;15.10;99.90;;;;;;5115648;28;20110;-66
2023/08/14 05:13:36;;;;;;;22.00;12.90;;;15.30;99.90;;;;;;5117610;28;20499;-66
2023/08/14 05:16:02;;;;;;;25.75;13.13;;;15.40;99.90;;;;;;5116624;28;20024;-66
2023/08/14 05:18:28;;;;;;;24.95;13.88;;;15.50;99.90;;;;;;5116433;28;20024;-65
2023/08/14 05:20:54;;;;;;;20.80;12.02;;;15.70;99.90;;;;;;5116727;28;20015;-65
2023/08/14 05:23:20;;;;;;;26.50;12.30;;;15.80;99.90;;;;;;5116333;28;20031;-66
2023/08/14 05:25:46;;;;;;;23.45;12.25;;;15.90;99.90;;;;;;5118145;28;20020;-66
2023/08/14 05:28:12;;;;;;;18.65;11.80;;;16.00;99.90;;;;;;5118430;28;20343;-66
2023/08/14 05:30:44;;;;;;;21.52;11.15;;;16.10;99.90;;;;;;5115980;28;20700;-66
2023/08/14 05:33:10;;;;;;;20.50;10.98;;;16.20;99.90;;;;;;5118194;28;20023;-65
2023/08/14 05:35:36;;;;;;;18.17;10.75;;;16.30;99.90;;;;;;5117448;28;20034;-66
2023/08/14 05:38:02;;;;;;;25.83;12.65;;;16.50;99.90;;;;;;5118085;28;20020;-66
2023/08/14 05:40:28;;;;;;;22.88;11.75;;;16.60;99.90;;;;;;5118269;28;20039;-66
2023/08/14 05:43:05;;;;;;;32.75;11.98;;;16.60;99.90;;;;;;5117414;28;20528;-65
2023/08/14 05:45:32;;;;;;;20.38;11.50;;;16.80;99.90;;;;;;5117548;28;20381;-65
2023/08/14 05:48:00;;;;;;;34.35;14.05;;;16.90;99.90;;;;;;5117277;28;20469;-65
2023/08/14 05:50:29;;;;;;;24.45;11.63;;;17.10;99.90;;;;;;5117728;28;20023;-66
2023/08/14 05:52:56;;;;;;;25.58;13.35;;;17.20;99.90;;;;;;5113221;27;20027;-66
2023/08/14 05:55:26;;;;;;;29.13;10.85;;;17.30;99.90;;;;;;5117313;27;20024;-66
2023/08/14 05:57:52;;;;;;;19.50;10.88;;;17.50;99.90;;;;;;5118073;28;20030;-66
2023/08/14 06:00:19;;;;;;;17.75;11.10;;;17.60;99.90;;;;;;5117257;28;20055;-66
2023/08/14 06:02:45;;;;;;;17.95;11.15;;;17.70;99.90;;;;;;5117201;28;20105;-66
2023/08/14 06:05:12;;;;;;;27.63;12.00;;;17.90;99.90;;;;;;5116772;28;20059;-65
2023/08/14 06:07:38;;;;;;;26.58;13.15;;;18.00;99.90;;;;;;5116660;28;20110;-66
2023/08/14 06:10:05;;;;;;;27.63;10.82;;;18.20;99.90;;;;;;5114059;28;20031;-66
2023/08/14 06:12:32;;;;;;;20.05;10.45;;;18.30;99.90;;;;;;5115690;28;20480;-65
2023/08/14 06:14:59;;;;;;;18.80;10.80;;;18.50;99.90;;;;;;5116960;28;20788;-66
2023/08/14 06:17:25;;;;;;;27.65;11.95;;;18.60;99.90;;;;;;5115160;28;20071;-66
2023/08/14 06:19:51;;;;;;;22.77;11.98;;;18.80;99.90;;;;;;5117253;28;20024;-66
2023/08/14 06:22:19;;;;;;;17.48;11.25;;;18.90;99.90;;;;;;5116260;28;20467;-66
2023/08/14 06:24:45;;;;;;;23.83;11.98;;;18.80;99.90;;;;;;5116653;28;20024;-66
2023/08/14 06:27:23;;;;;;;25.23;13.13;;;18.90;99.90;;;;;;5115647;28;20365;-66
2023/08/14 06:29:49;;;;;;;23.52;13.95;;;19.10;99.90;;;;;;5116750;27;20110;-66
2023/08/14 06:32:15;;;;;;;29.67;13.52;;;19.40;99.90;;;;;;5116788;28;20059;-66
2023/08/14 06:34:41;;;;;;;26.60;13.23;;;19.60;99.90;;;;;;5117145;28;20020;-66
2023/08/14 06:37:07;;;;;;;30.15;12.43;;;19.70;99.90;;;;;;5117184;28;20087;-66
2023/08/14 06:39:33;;;;;;;34.17;12.60;;;19.80;99.90;;;;;;5116783;28;20453;-66
2023/08/14 06:41:59;;;;;;;28.40;11.55;;;20.10;99.90;;;;;;5116907;28;20107;-66
2023/08/14 06:44:47;;;;;;;37.05;11.43;;;20.40;99.90;;;;;;5115791;28;20114;-66
2023/08/14 06:47:13;;;;;;;23.67;10.45;;;20.60;99.90;;;;;;5117043;28;20039;-66
2023/08/14 06:49:39;;;;;;;20.92;10.85;;;20.80;99.90;;;;;;5115553;28;20087;-66
2023/08/14 06:52:06;;;;;;;26.77;10.30;;;21.00;99.90;;;;;;5117004;28;20406;-66
2023/08/14 06:54:32;;;;;;;25.70;10.50;;;21.20;99.30;;;;;;5117453;28;20111;-66
2023/08/14 06:56:58;;;;;;;18.73;9.27;;;21.50;99.10;;;;;;5117515;28;20059;-66
2023/08/14 06:59:24;;;;;;;27.85;10.13;;;21.70;98.00;;;;;;5117189;28;20395;-64
2023/08/14 07:01:50;;;;;;;23.55;9.13;;;21.90;97.40;;;;;;5117219;28;20024;-64
2023/08/14 07:04:16;;;;;;;21.13;10.05;;;22.10;95.10;;;;;;5117093;28;20031;-64
2023/08/14 07:06:42;;;;;;;21.20;9.27;;;22.30;95.10;;;;;;5117175;28;20030;-64
2023/08/14 07:09:08;;;;;;;29.48;8.80;;;22.50;94.60;;;;;;5116972;28;20039;-64
2023/08/14 07:11:38;;;;;;;18.17;9.50;;;22.80;94.30;;;;;;5116343;28;20114;-64
2023/08/14 07:14:08;;;;;;;19.55;9.25;;;23.10;92.10;;;;;;5115377;28;20012;-64
2023/08/14 07:16:34;;;;;;;;;;;23.30;92.30;;;;;;5114570;28;20028;-64
2023/08/14 07:19:03;;;;;;;18.38;8.32;;;23.50;92.20;;;;;;5115596;28;19919;-64
2023/08/14 07:21:29;;;;;;;23.67;9.15;;;23.80;91.60;;;;;;5114247;28;20038;-64
2023/08/14 07:23:55;;;;;;;17.88;8.27;;;24.20;90.20;;;;;;5112670;28;20032;-64
2023/08/14 07:26:21;;;;;;;19.40;8.57;;;24.30;89.50;;;;;;5114143;28;20031;-64
2023/08/14 07:28:48;;;;;;;22.60;8.10;;;24.60;90.00;;;;;;5111173;28;20024;-64
2023/08/14 07:31:16;;;;;;;16.65;8.65;;;24.90;86.10;;;;;;5114526;28;20072;-64
2023/08/14 07:33:45;;;;;;;14.20;7.72;;;25.00;85.70;;;;;;5114477;28;20023;-64
2023/08/14 07:36:11;;;;;;;21.05;8.45;;;25.30;82.80;;;;;;5114058;28;20099;-64
2023/08/14 07:38:37;;;;;;;13.80;8.30;;;25.50;83.10;;;;;;5114975;28;20106;-64
2023/08/14 07:41:03;;;;;;;15.63;8.13;;;25.90;84.00;;;;;;5100709;28;20449;-64
2023/08/14 07:43:29;;;;;;;15.88;6.72;;;26.10;80.40;;;;;;5097953;28;20027;-64
2023/08/14 07:45:55;;;;;;;19.67;7.72;;;26.60;81.70;;;;;;5114937;28;20030;-64
2023/08/14 07:48:21;;;;;;;12.48;7.53;;;26.80;78.20;;;;;;5115675;28;20078;-64
2023/08/14 07:50:54;;;;;;;13.57;7.28;;;26.80;76.10;;;;;;5115285;28;20031;-65
2023/08/14 07:53:20;;;;;;;12.48;6.68;;;27.00;75.70;;;;;;5115691;28;20043;-64
2023/08/14 07:55:48;;;;;;;17.58;8.63;;;26.50;74.10;;;;;;5115654;28;20106;-64
2023/08/14 07:58:15;;;;;;;13.57;7.68;;;26.90;74.30;;;;;;5115491;28;20043;-65
2023/08/14 08:00:41;;;;;;;11.80;7.13;;;27.10;73.30;;;;;;5115733;28;20048;-65
2023/08/14 08:03:07;;;;;;;17.02;8.13;;;27.50;71.80;;;;;;5115273;28;20020;-65
2023/08/14 08:05:33;;;;;;;16.15;7.57;;;27.50;70.10;;;;;;5115148;28;20049;-65
2023/08/14 08:08:01;;;;;;;15.00;7.20;;;27.60;70.20;;;;;;5114877;28;20114;-65
2023/08/14 08:10:27;;;;;;;12.82;6.72;;;27.90;68.70;;;;;;5114593;28;20055;-65
2023/08/14 08:12:53;;;;;;;13.00;6.38;;;28.20;67.90;;;;;;5114699;28;20073;-65
2023/08/14 08:15:19;;;;;;;15.65;6.70;;;28.50;67.40;;;;;;5115125;28;20024;-65
2023/08/14 08:17:46;;;;;;;11.73;6.68;;;28.70;64.40;;;;;;5115205;28;20191;-65
2023/08/14 08:20:12;;;;;;;11.13;6.75;;;29.00;66.40;;;;;;5115143;28;20085;-65
2023/08/14 08:22:38;;;;;;;13.90;6.85;;;28.70;63.20;;;;;;5115469;28;20087;-65
2023/08/14 08:25:04;;;;;;;12.82;6.32;;;29.00;63.70;;;;;;5115025;28;20127;-65
2023/08/14 08:27:30;;;;;;;23.35;7.85;;;29.20;64.50;;;;;;5114925;28;20425;-65
2023/08/14 08:29:56;;;;;;;24.40;7.63;;;29.70;60.40;;;;;;5114842;28;20116;-65
2023/08/14 08:32:23;;;;;;;14.20;6.88;;;30.10;61.00;;;;;;5114340;28;20015;-65
2023/08/14 08:34:49;;;;;;;22.98;7.28;;;30.40;58.60;;;;;;5115116;28;20027;-65
2023/08/14 08:37:19;;;;;;;19.48;7.82;;;30.80;56.70;;;;;;5113089;28;20032;-65
2023/08/14 08:39:46;;;;;;;18.20;7.63;;;31.00;57.80;;;;;;5113949;28;20065;-65
2023/08/14 08:42:12;;;;;;;18.15;7.00;;;30.60;55.00;;;;;;5114278;28;20140;-65
2023/08/14 08:44:42;;;;;;;18.08;7.50;;;30.20;56.70;;;;;;5114298;28;20024;-65
2023/08/14 08:47:10;;;;;;;14.20;6.40;;;30.70;55.50;;;;;;5114930;28;20110;-65
2023/08/14 08:49:39;;;;;;;17.42;7.65;;;31.00;55.40;;;;;;5114723;28;20107;-65
2023/08/14 08:52:08;;;;;;;20.48;7.85;;;31.20;56.70;;;;;;5114835;28;20024;-65
2023/08/14 08:54:35;;;;;;;16.23;7.28;;;31.50;53.40;;;;;;5114025;28;20027;-65
2023/08/14 08:57:02;;;;;;;17.15;8.07;;;31.90;54.30;;;;;;5114589;28;20016;-65
2023/08/14 08:59:29;;;;;;;18.95;8.02;;;32.10;52.00;;;;;;5114543;28;20074;-65
2023/08/14 09:01:55;;;;;;;16.95;7.85;;;31.80;51.80;;;;;;5114606;28;20164;-65
2023/08/14 09:04:21;;;;;;;17.63;7.13;;;32.10;51.90;;;;;;5114567;28;20046;-65
2023/08/14 09:06:47;;;;;;;10.27;7.10;;;32.40;49.70;;;;;;5114565;28;20024;-65
2023/08/14 09:09:14;;;;;;;12.70;7.35;;;32.60;50.90;;;;;;5114506;28;20496;-65
2023/08/14 09:11:40;;;;;;;12.02;6.82;;;31.90;49.70;;;;;;5114607;28;20028;-65
2023/08/14 09:14:06;;;;;;;8.82;6.57;;;32.10;48.60;;;;;;5114545;28;20027;-65
2023/08/14 09:16:32;;;;;;;15.77;7.15;;;32.60;48.60;;;;;;5114464;28;20020;-65
2023/08/14 09:19:00;;;;;;;16.60;6.47;;;32.60;48.60;;;;;;5114490;28;20100;-65
2023/08/14 09:21:27;;;;;;;11.70;5.72;;;32.50;47.40;;;;;;5114443;28;20461;-65
2023/08/14 09:23:57;;;;;;;8.85;4.78;;;32.50;42.90;;;;;;5114832;28;20119;-65
2023/08/14 09:26:23;;;;;;;6.35;4.55;;;32.00;39.80;;;;;;5113227;28;20381;-65
2023/08/14 09:28:49;;;;;;;7.25;5.10;;;31.50;44.00;;;;;;5114105;28;20028;-65
2023/08/14 09:31:15;;;;;;;5.63;4.50;;;31.50;44.10;;;;;;5114360;28;20027;-65
2023/08/14 09:33:43;;;;;;;13.77;5.90;;;31.80;42.00;;;;;;5114522;28;20020;-65
2023/08/14 09:36:13;;;;;;;5.93;4.72;;;31.70;41.60;;;;;;5114271;28;20048;-65
2023/08/14 09:38:40;;;;;;;11.20;6.22;;;31.10;40.70;;;;;;5114361;28;20112;-64
2023/08/14 09:41:06;;;;;;;14.05;5.90;;;30.80;42.60;;;;;;5114306;28;20024;-65
2023/08/14 09:43:33;;;;;;;9.07;5.50;;;31.30;42.70;;;;;;5114350;28;20027;-64
2023/08/14 09:46:01;;;;;;;9.85;5.63;;;31.80;41.90;;;;;;5114314;28;20020;-65
2023/08/14 09:48:41;;;;;;;11.02;5.88;;;31.90;44.60;;;;;;5114408;28;20032;-65
2023/08/14 09:51:15;;;;;;;6.28;5.10;;;32.40;42.00;;;;;;5114005;28;20027;-65
2023/08/14 09:53:56;;;;;;;7.60;4.63;;;32.40;38.90;;;;;;5113812;28;20467;-65
2023/08/14 09:56:22;;;;;;;6.75;4.60;;;31.60;36.40;;;;;;5114845;28;20480;-65
2023/08/14 09:58:49;;;;;;;7.50;4.63;;;31.10;37.80;;;;;;5118168;28;20409;-65
2023/08/14 10:01:17;;;;;;;8.43;5.30;;;31.10;39.20;;;;;;5118415;28;20904;-65
2023/08/14 10:03:46;;;;;;;8.38;5.55;;;31.70;40.10;;;;;;5118766;28;20115;-65
2023/08/14 10:06:13;;;;;;;11.88;5.57;;;32.20;43.30;;;;;;5118479;28;20024;-65
2023/08/14 10:08:42;;;;;;;10.27;4.30;;;32.90;38.40;;;;;;5118560;28;20023;-65
2023/08/14 10:11:12;;;;;;;9.73;4.57;;;32.80;36.30;;;;;;5117700;28;20423;-65
2023/08/14 10:13:54;;;;;;;5.88;4.70;;;32.00;36.10;;;;;;5117446;28;20368;-65
2023/08/14 10:16:27;;;;;;;13.20;7.28;;;32.10;35.80;;;;;;5117661;28;20026;-65
2023/08/14 10:18:57;;;;;;;8.65;5.03;;;32.70;37.60;;;;;;5117631;28;20032;-65
2023/08/14 10:21:27;;;;;;;5.75;4.47;;;33.40;35.40;;;;;;5117645;28;20058;-65
2023/08/14 10:23:56;;;;;;;14.05;6.07;;;32.80;36.00;;;;;;5117651;28;20020;-65
2023/08/14 10:26:23;;;;;;;9.27;4.75;;;32.30;37.20;;;;;;5117418;28;20032;-65
2023/08/14 10:28:51;;;;;;;11.60;5.22;;;33.20;34.30;;;;;;5117243;28;20035;-65
2023/08/14 10:31:19;;;;;;;9.63;4.53;;;32.30;35.50;;;;;;5116118;28;20031;-64
2023/08/14 10:33:45;;;;;;;12.32;5.15;;;32.40;33.70;;;;;;5117203;28;20032;-65
2023/08/14 10:36:22;;;;;;;10.68;4.53;;;31.80;36.40;;;;;;5115416;28;20115;-65
2023/08/14 10:38:49;;;;;;;7.63;5.00;;;32.80;34.90;;;;;;5116430;28;20035;-65
2023/08/14 10:41:17;;;;;;;11.52;5.28;;;33.00;33.50;;;;;;5116908;28;20023;-65
2023/08/14 10:43:48;;;;;;;9.68;4.60;;;32.90;35.90;;;;;;5116912;28;20037;-65
2023/08/14 10:46:14;;;;;;;5.28;4.22;;;33.50;32.30;;;;;;5117210;28;20103;-65
2023/08/14 10:48:43;;;;;;;11.73;5.15;;;33.40;32.50;;;;;;5116756;28;20077;-65
2023/08/14 10:51:10;;;;;;;12.05;5.60;;;32.80;32.30;;;;;;5115764;28;20516;-65
2023/08/14 10:53:44;;;;;;;9.77;3.70;;;32.30;33.40;;;;;;5116851;28;20480;-65
2023/08/14 10:56:12;;;;;;;7.30;4.05;;;32.00;31.60;;;;;;5115260;28;20028;-65
2023/08/14 10:58:40;;;;;;;6.50;3.78;;;31.30;32.80;;;;;;5115138;28;20023;-65
2023/08/14 11:01:11;;;;;;;8.00;4.13;;;31.60;33.00;;;;;;5116742;28;20026;-66
2023/08/14 11:03:58;;;;;;;8.57;4.03;;;31.30;32.60;;;;;;5116378;27;20057;-65
2023/08/14 11:06:28;;;;;;;8.20;4.40;;;31.00;34.20;;;;;;5106415;28;20039;-66
2023/08/14 11:09:03;;;;;;;6.38;4.10;;;31.70;33.50;;;;;;5115078;28;20122;-65
2023/08/14 11:11:30;;;;;;;6.55;5.88;;;31.20;33.00;;;;;;5116279;28;20337;-65
2023/08/14 11:13:56;;;;;;;8.02;4.75;;;31.50;34.10;;;;;;5116232;28;20106;-65
2023/08/14 11:16:22;;;;;;;7.65;4.97;;;31.60;34.30;;;;;;5116406;28;20035;-65
2023/08/14 11:18:52;;;;;;;6.72;4.55;;;32.20;34.30;;;;;;5115925;28;20102;-65
2023/08/14 11:21:18;;;;;;;9.73;4.43;;;32.60;33.30;;;;;;5113229;28;20078;-64
2023/08/14 11:23:44;;;;;;;9.00;4.60;;;32.40;32.50;;;;;;5115577;28;20051;-65
2023/08/14 11:26:10;;;;;;;8.63;4.50;;;32.60;34.20;;;;;;5116077;28;20024;-65
2023/08/14 11:28:36;;;;;;;9.15;4.22;;;32.50;32.50;;;;;;5116315;28;20031;-65
2023/08/14 11:31:02;;;;;;;8.38;4.35;;;32.60;32.40;;;;;;5116525;28;20071;-65
2023/08/14 11:33:31;;;;;;;8.35;4.00;;;32.70;33.30;;;;;;5116984;28;20030;-65
2023/08/14 11:35:57;;;;;;;7.70;4.05;;;32.70;33.00;;;;;;5116088;28;20015;-66
2023/08/14 11:38:26;;;;;;;6.93;4.35;;;31.70;33.20;;;;;;5116680;28;20152;-65
2023/08/14 11:40:52;;;;;;;8.10;5.05;;;31.60;34.70;;;;;;5115427;28;20468;-65
2023/08/14 11:43:20;;;;;;;5.85;4.57;;;31.90;34.00;;;;;;5115698;28;20032;-65
2023/08/14 11:45:50;;;;;;;8.05;5.30;;;31.90;34.60;;;;;;5115733;28;20024;-65
2023/08/14 11:48:16;;;;;;;6.72;4.88;;;32.90;33.60;;;;;;5115474;28;20533;-65
2023/08/14 11:50:47;;;;;;;15.85;5.78;;;32.80;32.00;;;;;;5113965;28;20111;-65
2023/08/14 11:53:15;;;;;;;9.20;4.88;;;32.20;33.50;;;;;;5116425;28;20299;-65
2023/08/14 11:55:50;;;;;;;10.13;5.22;;;33.00;33.40;;;;;;5116034;28;20019;-65
2023/08/14 11:58:18;;;;;;;9.73;5.13;;;33.00;33.70;;;;;;5114098;28;20079;-65
2023/08/14 12:00:50;;;;;;;5.88;4.68;;;33.90;31.10;;;;;;5115663;27;20092;-65
2023/08/14 12:03:17;;;;;;;12.02;5.13;;;33.90;30.70;;;;;;5116167;28;20045;-65
2023/08/14 12:05:50;;;;;;;8.65;4.38;;;34.40;32.10;;;;;;5113440;28;20035;-65
2023/08/14 12:08:16;;;;;;;7.65;4.20;;;34.90;30.40;;;;;;5097604;28;20024;-65
2023/08/14 12:10:43;;;;;;;11.20;4.72;;;35.20;29.80;;;;;;5114929;28;20174;-65
2023/08/14 12:13:10;;;;;;;15.15;5.07;;;35.50;31.40;;;;;;5114747;28;20019;-65
2023/08/14 12:15:38;;;;;;;14.50;4.88;;;35.70;30.10;;;;;;5115261;27;20106;-65
2023/08/14 12:18:11;;;;;;;5.80;3.95;;;35.90;30.80;;;;;;5115288;28;20035;-65
2023/08/14 12:20:38;;;;;;;6.45;4.78;;;35.50;28.00;;;;;;5114558;28;20023;-66
2023/08/14 12:23:16;;;;;;;9.13;5.50;;;34.60;29.60;;;;;;5115187;28;20392;-65
2023/08/14 12:25:42;;;;;;;10.05;5.43;;;34.70;30.00;;;;;;5115039;28;20543;-66
2023/08/14 12:28:08;;;;;;;12.85;5.80;;;34.70;30.80;;;;;;5114832;28;20032;-65
2023/08/14 12:30:34;;;;;;;7.55;4.88;;;35.40;30.70;;;;;;5114901;28;20047;-66
2023/08/14 12:33:00;;;;;;;5.75;4.50;;;35.70;30.20;;;;;;5115361;28;20030;-65
2023/08/14 12:35:26;;;;;;;7.78;4.53;;;34.60;30.00;;;;;;5114693;28;20031;-65